Time;durP1;ratioP1;P1;durP2;ratioP2;P2;SDS_P1;SDS_P2;PMS_P1;PMS_P2;Temp;Humidity;BMP_temperature;BMP_pressure;BME280_temperature;BME280_humidity;BME280_pressure;Samples;Min_cycle;Max_cycle;Signal;HPM_P1;HPM_P2
2022/11/13 00:01:19;;;;;;;13.07;10.13;;;;;;;7.88;100.00;102593.22;5254441;28;20439;-73
2022/11/13 00:03:51;;;;;;;10.50;9.27;;;;;;;7.79;100.00;102583.19;5254471;28;20074;-73
2022/11/13 00:06:22;;;;;;;11.65;9.45;;;;;;;7.76;100.00;102588.53;5255782;28;20028;-73
2022/11/13 00:08:54;;;;;;;12.85;10.23;;;;;;;7.73;100.00;102586.09;5253888;28;20040;-73
2022/11/13 00:11:25;;;;;;;12.20;9.77;;;;;;;7.73;100.00;102581.72;5255663;28;20436;-73
2022/11/13 00:13:56;;;;;;;11.32;9.68;;;;;;;7.70;100.00;102581.84;5255922;28;20087;-73
2022/11/13 00:16:28;;;;;;;10.45;8.85;;;;;;;7.68;100.00;102583.66;5255507;28;20494;-73
2022/11/13 00:18:59;;;;;;;10.50;8.65;;;;;;;7.61;100.00;102570.97;5253501;28;20044;-73
2022/11/13 00:21:30;;;;;;;12.68;9.60;;;;;;;7.59;100.00;102571.03;5254415;28;20043;-73
2022/11/13 00:24:02;;;;;;;11.30;9.55;;;;;;;7.55;100.00;102566.88;5250632;28;20033;-73
2022/11/13 00:26:33;;;;;;;12.77;9.10;;;;;;;7.62;100.00;102563.09;5254778;28;20099;-73
2022/11/13 00:29:04;;;;;;;10.10;9.02;;;;;;;7.61;100.00;102566.59;5251697;28;20053;-73
2022/11/13 00:31:36;;;;;;;11.68;9.00;;;;;;;7.55;100.00;102566.88;5254171;28;20021;-73
2022/11/13 00:34:09;;;;;;;9.68;8.63;;;;;;;7.60;100.00;102575.31;5256618;28;20033;-73
2022/11/13 00:36:40;;;;;;;;;;;;;;;8.24;100.00;102572.38;5254625;28;20033;-73
2022/11/13 00:39:11;;;;;;;10.90;8.77;;;;;;;7.52;100.00;102567.00;5254107;28;20286;-74
2022/11/13 00:41:43;;;;;;;9.60;8.60;;;;;;;7.44;100.00;102558.69;5255472;28;20069;-73
2022/11/13 00:44:14;;;;;;;10.60;9.02;;;;;;;7.38;100.00;102557.16;5255437;28;20028;-73
2022/11/13 00:46:45;;;;;;;11.18;8.68;;;;;;;7.31;100.00;102553.13;5256006;28;20021;-73
2022/11/13 00:49:16;;;;;;;10.35;8.70;;;;;;;7.26;100.00;102552.50;5255809;28;20074;-73
2022/11/13 00:51:48;;;;;;;9.63;8.05;;;;;;;7.25;100.00;102549.06;5254491;28;20028;-73
2022/11/13 00:54:19;;;;;;;10.38;9.25;;;;;;;7.17;100.00;102545.94;5255605;28;20029;-73
2022/11/13 00:56:50;;;;;;;10.45;8.88;;;;;;;7.07;100.00;102535.03;5253904;28;20032;-73
2022/11/13 00:59:22;;;;;;;10.00;8.27;;;;;;;7.10;100.00;102538.44;5255209;28;20056;-73
2022/11/13 01:01:53;;;;;;;15.93;9.45;;;;;;;7.07;100.00;102534.19;5254122;28;20031;-73
2022/11/13 01:04:24;;;;;;;11.23;9.13;;;;;;;7.01;100.00;102524.91;5254632;28;20377;-73
2022/11/13 01:06:56;;;;;;;12.90;9.40;;;;;;;6.99;100.00;102521.50;5255125;28;20064;-73
2022/11/13 01:09:27;;;;;;;14.02;9.05;;;;;;;7.00;100.00;102535.38;5254103;28;20127;-73
2022/11/13 01:11:58;;;;;;;12.88;9.02;;;;;;;6.99;100.00;102531.94;5253902;28;20029;-73
2022/11/13 01:14:30;;;;;;;12.88;9.13;;;;;;;6.89;100.00;102530.63;5253986;28;20068;-73
2022/11/13 01:17:01;;;;;;;11.02;9.35;;;;;;;6.97;100.00;102528.56;5254455;28;20036;-73
2022/11/13 01:19:32;;;;;;;10.63;8.23;;;;;;;6.98;100.00;102529.41;5253613;28;20359;-73
2022/11/13 01:22:03;;;;;;;11.60;8.73;;;;;;;6.98;100.00;102532.84;5255057;28;20404;-73
2022/11/13 01:24:35;;;;;;;11.43;9.05;;;;;;;6.91;100.00;102530.56;5254183;28;20024;-73
2022/11/13 01:27:06;;;;;;;10.18;8.27;;;;;;;6.95;100.00;102529.53;5254499;28;20061;-73
2022/11/13 01:29:37;;;;;;;14.82;9.20;;;;;;;6.88;100.00;102526.31;5254667;28;20028;-73
2022/11/13 01:32:09;;;;;;;9.57;8.57;;;;;;;6.86;100.00;102533.38;5253961;28;20028;-73
2022/11/13 01:34:40;;;;;;;9.65;8.63;;;;;;;6.88;100.00;102530.69;5253838;28;20029;-73
2022/11/13 01:37:11;;;;;;;9.98;8.57;;;;;;;6.80;100.00;102525.81;5259207;28;20017;-73
2022/11/13 01:39:43;;;;;;;9.75;8.10;;;;;;;6.87;100.00;102529.84;5256671;28;20045;-73
2022/11/13 01:42:14;;;;;;;10.52;8.38;;;;;;;6.78;100.00;102531.09;5258658;28;20033;-73
2022/11/13 01:45:03;;;;;;;11.38;8.05;;;;;;;6.91;100.00;102533.16;5259259;28;20029;-73
2022/11/13 01:47:34;;;;;;;9.07;7.78;;;;;;;6.69;100.00;102525.41;5257073;28;20025;-73
2022/11/13 01:50:12;;;;;;;9.55;8.27;;;;;;;6.76;100.00;102519.03;5255232;28;20025;-73
2022/11/13 01:52:43;;;;;;;10.32;9.02;;;;;;;6.63;100.00;102515.22;5274630;28;20031;-73
2022/11/13 01:55:18;;;;;;;9.63;7.35;;;;;;;6.69;100.00;102514.97;5259518;28;20040;-73
2022/11/13 01:57:49;;;;;;;9.55;7.93;;;;;;;6.55;100.00;102503.41;5258102;28;20025;-73
2022/11/13 02:00:21;;;;;;;9.35;7.45;;;;;;;6.53;100.00;102500.00;5258478;28;20036;-73
2022/11/13 02:02:52;;;;;;;10.15;7.85;;;;;;;6.60;100.00;102492.78;5258689;28;20063;-73
2022/11/13 02:05:23;;;;;;;9.52;8.52;;;;;;;6.56;100.00;102492.06;5257137;28;20486;-73
2022/11/13 02:07:55;;;;;;;10.63;7.78;;;;;;;6.46;100.00;102487.28;5258817;28;20378;-72
2022/11/13 02:10:26;;;;;;;9.48;7.50;;;;;;;6.36;100.00;102493.78;5257795;28;20037;-72
2022/11/13 02:12:57;;;;;;;9.32;7.72;;;;;;;6.37;100.00;102483.31;5258806;28;20040;-73
2022/11/13 02:15:32;;;;;;;9.75;7.97;;;;;;;6.43;100.00;102483.06;5257587;28;20123;-73
2022/11/13 02:18:03;;;;;;;10.68;7.45;;;;;;;6.33;100.00;102480.00;5258001;28;20498;-73
2022/11/13 02:20:58;;;;;;;11.20;8.40;;;;;;;6.55;100.00;102481.69;5259716;28;20029;-72
2022/11/13 02:23:38;;;;;;;9.15;7.82;;;;;;;6.49;100.00;102472.41;5258797;28;20090;-73
2022/11/13 02:26:11;;;;;;;9.45;7.70;;;;;;;6.38;100.00;102472.00;5256240;28;20065;-73
2022/11/13 02:28:43;;;;;;;10.55;8.20;;;;;;;6.44;100.00;102470.88;5258181;28;20077;-72
2022/11/13 02:31:14;;;;;;;9.75;8.45;;;;;;;6.46;100.00;102469.91;5258904;28;20029;-73
2022/11/13 02:33:45;;;;;;;12.10;8.35;;;;;;;6.46;100.00;102462.09;5258840;28;20478;-73
2022/11/13 02:36:20;;;;;;;10.18;8.13;;;;;;;6.71;100.00;102463.69;5258512;28;20075;-73
2022/11/13 02:38:53;;;;;;;9.20;8.25;;;;;;;6.62;100.00;102451.88;5268722;22;20052;-73
2022/11/13 02:41:24;;;;;;;10.10;8.02;;;;;;;6.68;100.00;102464.66;5237997;28;20516;-73
2022/11/13 02:43:56;;;;;;;9.23;7.80;;;;;;;6.78;100.00;102457.28;5245902;28;20116;-73
2022/11/13 02:46:27;;;;;;;8.05;7.22;;;;;;;6.78;100.00;102455.56;5244864;28;20025;-73
2022/11/13 02:48:59;;;;;;;9.90;8.40;;;;;;;6.78;100.00;102449.47;5239519;28;20067;-73
2022/11/13 02:51:30;;;;;;;8.73;7.82;;;;;;;6.74;100.00;102453.13;5235304;28;20032;-73
2022/11/13 02:54:02;;;;;;;9.45;7.63;;;;;;;6.81;100.00;102450.19;5236563;28;20163;-73
2022/11/13 02:56:33;;;;;;;11.35;7.82;;;;;;;6.79;100.00;102439.00;5226114;28;20116;-73
2022/11/13 02:59:04;;;;;;;9.98;8.35;;;;;;;6.93;100.00;102441.00;5234973;28;20036;-73
2022/11/13 03:01:35;;;;;;;10.52;8.52;;;;;;;6.85;100.00;102445.69;5231406;28;20029;-73
2022/11/13 03:04:07;;;;;;;8.82;7.63;;;;;;;6.88;100.00;102445.56;5232195;28;20504;-73
2022/11/13 03:06:38;;;;;;;9.25;7.25;;;;;;;6.88;100.00;102436.91;5234452;28;20688;-73
2022/11/13 03:09:09;;;;;;;9.18;7.72;;;;;;;6.85;100.00;102440.47;5231354;28;20413;-73
2022/11/13 03:11:42;;;;;;;8.68;7.65;;;;;;;6.86;100.00;102431.78;5235525;28;20017;-73
2022/11/13 03:14:14;;;;;;;9.13;7.38;;;;;;;6.84;100.00;102433.59;5233564;28;20041;-73
2022/11/13 03:16:45;;;;;;;8.95;7.22;;;;;;;6.78;100.00;102432.09;5232408;28;20093;-73
2022/11/13 03:19:16;;;;;;;8.32;7.35;;;;;;;6.77;100.00;102426.94;5233234;28;20561;-73
2022/11/13 03:21:47;;;;;;;8.15;6.85;;;;;;;6.74;100.00;102421.84;5234927;28;20525;-73
2022/11/13 03:24:19;;;;;;;9.75;7.78;;;;;;;6.68;100.00;102415.19;5234138;28;20393;-73
2022/11/13 03:26:50;;;;;;;9.30;7.30;;;;;;;6.70;100.00;102420.31;5234014;28;20414;-73
2022/11/13 03:29:21;;;;;;;7.80;7.00;;;;;;;6.76;100.00;102417.44;5235820;28;20049;-73
2022/11/13 03:31:52;;;;;;;9.90;8.00;;;;;;;6.72;100.00;102413.28;5237002;28;20103;-73
2022/11/13 03:34:24;;;;;;;10.13;7.78;;;;;;;6.69;100.00;102418.63;5233684;28;20422;-73
2022/11/13 03:36:55;;;;;;;8.88;7.18;;;;;;;6.77;100.00;102419.13;5235435;28;20052;-73
2022/11/13 03:39:27;;;;;;;8.70;7.53;;;;;;;6.82;100.00;102410.22;5233129;28;20033;-73
2022/11/13 03:41:58;;;;;;;8.68;7.35;;;;;;;6.93;100.00;102414.97;5234361;28;20298;-73
2022/11/13 03:44:29;;;;;;;9.00;8.02;;;;;;;7.01;100.00;102398.97;5236184;28;20124;-73
2022/11/13 03:47:01;;;;;;;8.75;7.85;;;;;;;7.03;100.00;102403.19;5234795;28;20320;-73
2022/11/13 03:49:32;;;;;;;11.45;8.50;;;;;;;7.12;100.00;102395.88;5233620;28;20463;-73
2022/11/13 03:52:03;;;;;;;9.85;7.93;;;;;;;7.22;100.00;102403.19;5235511;28;20386;-73
2022/11/13 03:54:34;;;;;;;8.95;8.00;;;;;;;7.27;100.00;102396.03;5234737;28;20482;-73
2022/11/13 03:57:06;;;;;;;8.88;7.15;;;;;;;7.36;100.00;102399.13;5234968;28;20028;-73
2022/11/13 03:59:37;;;;;;;10.88;7.45;;;;;;;7.35;100.00;102393.06;5232703;28;20140;-73
2022/11/13 04:02:08;;;;;;;9.23;8.23;;;;;;;7.43;100.00;102384.91;5232004;28;20021;-73
2022/11/13 04:04:40;;;;;;;8.75;7.35;;;;;;;7.49;100.00;102384.59;5231097;28;20034;-73
2022/11/13 04:07:11;;;;;;;8.32;6.90;;;;;;;7.52;100.00;102379.22;5235321;28;20022;-73
2022/11/13 04:09:42;;;;;;;11.77;7.53;;;;;;;7.54;100.00;102373.03;5231175;28;20045;-73
2022/11/13 04:12:13;;;;;;;8.95;7.45;;;;;;;7.55;100.00;102374.72;5233293;28;20030;-73
2022/11/13 04:14:45;;;;;;;7.80;7.00;;;;;;;7.63;100.00;102379.56;5232630;28;20132;-73
2022/11/13 04:17:16;;;;;;;7.47;6.28;;;;;;;7.60;100.00;102384.91;5234331;28;20029;-73
2022/11/13 04:19:47;;;;;;;12.82;7.40;;;;;;;7.63;100.00;102370.91;5234701;28;20028;-73
2022/11/13 04:22:18;;;;;;;9.05;6.80;;;;;;;7.67;100.00;102368.06;5231936;28;20501;-73
2022/11/13 04:24:50;;;;;;;10.15;7.40;;;;;;;7.76;100.00;102370.22;5235188;28;20402;-73
2022/11/13 04:27:21;;;;;;;9.13;6.90;;;;;;;7.81;100.00;102372.63;5234130;28;20386;-73
2022/11/13 04:29:52;;;;;;;9.43;6.40;;;;;;;7.88;100.00;102365.31;5234953;28;20466;-73
2022/11/13 04:32:23;;;;;;;8.63;6.53;;;;;;;7.86;100.00;102368.03;5233800;28;20052;-73
2022/11/13 04:34:55;;;;;;;7.25;6.07;;;;;;;7.83;100.00;102355.13;5233217;28;21161;-73
2022/11/13 04:37:26;;;;;;;9.23;6.20;;;;;;;7.86;100.00;102360.19;5235299;28;20071;-74
2022/11/13 04:39:57;;;;;;;9.23;6.53;;;;;;;7.79;100.00;102358.78;5234472;28;20068;-73
2022/11/13 04:45:22;;;;;;;7.50;6.32;;;;;;;7.96;100.00;102355.38;5233111;28;20033;-73
2022/11/13 04:47:53;;;;;;;8.38;6.03;;;;;;;7.74;100.00;102332.94;5232146;28;20125;-73
2022/11/13 04:50:25;;;;;;;7.15;6.32;;;;;;;7.89;100.00;102349.59;5234030;28;20108;-73
2022/11/13 04:52:56;;;;;;;7.50;6.07;;;;;;;7.84;100.00;102343.78;5234649;28;21142;-73
2022/11/13 04:55:27;;;;;;;8.52;6.32;;;;;;;7.83;100.00;102365.56;5235177;28;20037;-73
2022/11/13 04:57:59;;;;;;;9.27;6.30;;;;;;;7.86;100.00;102352.34;5235596;28;20025;-73
2022/11/13 05:00:30;;;;;;;9.73;6.45;;;;;;;7.86;100.00;102361.97;5229753;28;20029;-73
2022/11/13 05:03:01;;;;;;;9.18;6.68;;;;;;;7.79;100.00;102359.63;5231312;28;20079;-73
2022/11/13 05:05:32;;;;;;;8.35;6.28;;;;;;;7.89;100.00;102365.25;5232272;28;20129;-73
2022/11/13 05:08:04;;;;;;;8.23;6.35;;;;;;;7.78;100.00;102357.13;5232828;28;20029;-73
2022/11/13 05:10:35;;;;;;;8.65;6.30;;;;;;;7.74;100.00;102361.63;5230210;28;20029;-73
2022/11/13 05:13:07;;;;;;;8.77;5.95;;;;;;;7.67;100.00;102362.00;5234167;28;20111;-73
2022/11/13 05:15:38;;;;;;;7.55;6.10;;;;;;;7.61;100.00;102357.91;5235640;28;20337;-73
2022/11/13 05:18:09;;;;;;;8.93;6.80;;;;;;;7.66;100.00;102357.72;5232642;28;20120;-73
2022/11/13 05:20:40;;;;;;;8.30;6.72;;;;;;;7.62;100.00;102349.19;5233011;28;20556;-73
2022/11/13 05:23:12;;;;;;;7.68;6.43;;;;;;;7.56;100.00;102354.69;5234111;28;20064;-73
2022/11/13 05:25:43;;;;;;;7.68;6.25;;;;;;;7.51;100.00;102338.44;5233977;28;20378;-73
2022/11/13 05:28:14;;;;;;;9.23;7.18;;;;;;;7.47;100.00;102348.16;5229988;28;20442;-73
2022/11/13 05:30:45;;;;;;;8.35;6.45;;;;;;;7.37;100.00;102340.84;5233562;28;20044;-73
2022/11/13 05:33:17;;;;;;;8.45;6.63;;;;;;;7.30;100.00;102340.28;5228446;28;20099;-73
2022/11/13 05:35:48;;;;;;;7.95;6.47;;;;;;;7.27;100.00;102336.06;5234033;28;20022;-73
2022/11/13 05:38:19;;;;;;;9.30;6.57;;;;;;;7.17;100.00;102334.81;5230931;28;20038;-73
2022/11/13 05:40:51;;;;;;;7.30;6.50;;;;;;;7.08;100.00;102337.81;5234593;28;20072;-74
2022/11/13 05:43:22;;;;;;;10.20;6.57;;;;;;;7.03;100.00;102343.25;5232166;28;20506;-73
2022/11/13 05:46:01;;;;;;;8.65;6.53;;;;;;;7.13;100.00;102343.69;5232632;28;20033;-72
2022/11/13 05:48:33;;;;;;;8.15;5.82;;;;;;;6.88;100.00;102345.72;5233821;28;20029;-73
2022/11/13 05:51:21;;;;;;;8.07;6.18;;;;;;;7.01;100.00;102345.09;5234151;28;20033;-72
2022/11/13 05:53:53;;;;;;;6.85;5.93;;;;;;;6.65;100.00;102349.34;5232522;28;20029;-72
2022/11/13 05:56:27;;;;;;;8.07;6.28;;;;;;;6.61;100.00;102347.81;5234218;28;20022;-72
2022/11/13 05:58:59;;;;;;;8.68;6.38;;;;;;;6.55;100.00;102334.16;5234207;28;20035;-72
2022/11/13 06:01:37;;;;;;;8.80;6.13;;;;;;;6.60;100.00;102340.91;5229712;28;20546;-72
2022/11/13 06:04:08;;;;;;;8.38;5.90;;;;;;;6.45;100.00;102345.03;5231219;28;20075;-72
2022/11/13 06:06:41;;;;;;;7.47;5.75;;;;;;;6.36;100.00;102333.22;5231206;28;20029;-72
2022/11/13 06:09:16;;;;;;;7.07;6.00;;;;;;;6.40;100.00;102345.19;5230365;28;20116;-72
2022/11/13 06:11:47;;;;;;;8.30;6.50;;;;;;;6.31;100.00;102335.19;5230341;28;20026;-72
2022/11/13 06:14:18;;;;;;;7.65;6.28;;;;;;;6.29;100.00;102332.69;5233908;28;20037;-72
2022/11/13 06:16:50;;;;;;;8.23;6.38;;;;;;;6.26;100.00;102327.59;5235317;28;20017;-72
2022/11/13 06:19:21;;;;;;;7.55;6.47;;;;;;;6.20;100.00;102320.03;5231725;28;20039;-72
2022/11/13 06:21:52;;;;;;;7.38;6.05;;;;;;;6.07;100.00;102306.72;5236681;28;20029;-72
2022/11/13 06:24:24;;;;;;;7.05;6.32;;;;;;;6.08;100.00;102313.59;5236879;28;20549;-72
2022/11/13 06:26:55;;;;;;;8.90;6.90;;;;;;;6.06;100.00;102312.84;5236254;28;20041;-72
2022/11/13 06:29:26;;;;;;;7.47;6.38;;;;;;;6.13;100.00;102315.16;5237324;28;20033;-72
2022/11/13 06:31:58;;;;;;;8.63;6.65;;;;;;;6.08;100.00;102312.75;5236332;28;20402;-72
2022/11/13 06:34:29;;;;;;;8.35;6.63;;;;;;;5.99;100.00;102311.41;5234912;28;20762;-72
2022/11/13 06:37:00;;;;;;;9.25;7.13;;;;;;;5.97;100.00;102308.00;5236943;28;20029;-72
2022/11/13 06:39:31;;;;;;;8.80;6.35;;;;;;;5.95;100.00;102307.25;5232926;28;20037;-72
2022/11/13 06:42:03;;;;;;;7.57;6.25;;;;;;;5.87;100.00;102298.84;5234805;28;20047;-72
2022/11/13 06:44:34;;;;;;;8.65;6.43;;;;;;;5.88;100.00;102299.72;5233790;28;20068;-72
2022/11/13 06:47:05;;;;;;;9.07;7.38;;;;;;;5.84;100.00;102291.19;5237661;28;20032;-72
2022/11/13 06:49:36;;;;;;;8.85;6.25;;;;;;;5.89;100.00;102301.41;5238040;28;20033;-72
2022/11/13 06:52:08;;;;;;;8.40;6.68;;;;;;;5.89;100.00;102298.81;5236414;28;20022;-72
2022/11/13 06:54:39;;;;;;;11.07;7.25;;;;;;;5.86;100.00;102302.38;5234582;28;20037;-72
2022/11/13 06:57:10;;;;;;;10.13;6.38;;;;;;;5.86;100.00;102292.81;5237088;28;20699;-72
2022/11/13 06:59:42;;;;;;;8.45;6.53;;;;;;;5.89;100.00;102293.59;5233213;28;20032;-72
2022/11/13 07:02:13;;;;;;;9.70;7.05;;;;;;;5.83;100.00;102292.09;5236479;28;20486;-73
2022/11/13 07:04:45;;;;;;;10.60;7.53;;;;;;;5.83;100.00;102292.09;5231299;28;20061;-73
2022/11/13 07:07:16;;;;;;;8.57;7.18;;;;;;;5.87;100.00;102288.44;5232751;28;20021;-73
2022/11/13 07:09:47;;;;;;;9.60;6.90;;;;;;;5.90;100.00;102290.09;5233454;28;20041;-72
2022/11/13 07:12:18;;;;;;;8.38;6.47;;;;;;;5.99;100.00;102300.16;5235746;28;20036;-72
2022/11/13 07:14:50;;;;;;;9.68;7.20;;;;;;;6.05;100.00;102303.31;5234389;28;20017;-73
2022/11/13 07:17:21;;;;;;;9.85;7.05;;;;;;;5.99;100.00;102280.19;5234011;28;20025;-72
2022/11/13 07:19:52;;;;;;;13.57;7.18;;;;;;;6.08;100.00;102298.00;5232521;28;20138;-72
2022/11/13 07:22:23;;;;;;;11.25;7.90;;;;;;;6.06;100.00;102288.56;5230599;28;20064;-72
2022/11/13 07:24:55;;;;;;;10.30;7.97;;;;;;;6.08;100.00;102300.59;5235140;28;20425;-73
2022/11/13 07:27:26;;;;;;;9.10;7.00;;;;;;;6.06;100.00;102283.34;5235242;28;20033;-72
2022/11/13 07:29:58;;;;;;;10.80;7.55;;;;;;;6.09;100.00;102289.25;5232151;28;20041;-72
2022/11/13 07:32:29;;;;;;;7.88;6.97;;;;;;;6.05;100.00;102277.31;5234371;28;20561;-73
2022/11/13 07:35:00;;;;;;;10.07;7.10;;;;;;;6.10;100.00;102279.72;5232720;28;20038;-72
2022/11/13 07:37:31;;;;;;;10.82;7.78;;;;;;;6.13;100.00;102295.19;5226989;28;20053;-73
2022/11/13 07:40:04;;;;;;;9.93;7.97;;;;;;;6.19;100.00;102289.72;5232205;28;20041;-72
2022/11/13 07:42:36;;;;;;;10.13;7.88;;;;;;;6.20;100.00;102286.22;5234123;28;20044;-72
2022/11/13 07:45:07;;;;;;;7.88;6.93;;;;;;;6.08;100.00;102281.53;5236233;28;20025;-73
2022/11/13 07:47:39;;;;;;;9.05;7.82;;;;;;;6.05;100.00;102277.31;5232339;28;20342;-72
2022/11/13 07:50:10;;;;;;;11.30;8.40;;;;;;;6.15;100.00;102285.56;5231393;28;20051;-72
2022/11/13 07:52:41;;;;;;;10.07;8.05;;;;;;;6.17;100.00;102280.28;5228390;28;20033;-72
2022/11/13 07:55:13;;;;;;;14.93;8.75;;;;;;;6.29;100.00;102279.78;5233062;28;20037;-73
2022/11/13 07:57:44;;;;;;;9.68;8.43;;;;;;;6.40;100.00;102284.50;5236419;28;20068;-72
2022/11/13 08:00:16;;;;;;;10.23;8.80;;;;;;;6.40;100.00;102284.50;5233308;28;20044;-72
2022/11/13 08:02:47;;;;;;;10.88;9.10;;;;;;;6.51;100.00;102277.88;5229522;28;20037;-72
2022/11/13 08:05:19;;;;;;;11.57;9.13;;;;;;;6.57;100.00;102276.78;5233871;28;20058;-73
2022/11/13 08:07:51;;;;;;;12.15;8.90;;;;;;;6.51;100.00;102279.66;5233682;28;20014;-73
2022/11/13 08:10:23;;;;;;;9.90;8.65;;;;;;;6.58;100.00;102283.66;5233636;28;20103;-73
2022/11/13 08:13:01;;;;;;;10.93;9.30;;;;;;;6.76;100.00;102284.59;5228519;28;20021;-73
2022/11/13 08:15:33;;;;;;;12.10;9.43;;;;;;;6.61;100.00;102280.94;5233141;28;20029;-73
2022/11/13 08:18:05;;;;;;;12.07;9.85;;;;;;;6.64;100.00;102266.94;5236191;28;20029;-73
2022/11/13 08:20:36;;;;;;;13.80;10.07;;;;;;;6.73;100.00;102271.72;5233076;28;20510;-73
2022/11/13 08:23:07;;;;;;;12.10;9.95;;;;;;;6.83;100.00;102276.44;5228879;28;20478;-73
2022/11/13 08:25:39;;;;;;;12.82;9.48;;;;;;;6.95;100.00;102275.03;5233387;28;20123;-73
2022/11/13 08:28:11;;;;;;;13.57;9.82;;;;;;;6.95;100.00;102271.56;5235752;28;20033;-73
2022/11/13 08:30:44;;;;;;;10.48;9.38;;;;;;;6.99;100.00;102273.97;5229714;28;20494;-73
2022/11/13 08:33:15;;;;;;;13.23;8.68;;;;;;;7.00;100.00;102267.81;5230227;28;20029;-72
2022/11/13 08:35:57;;;;;;;10.95;9.30;;;;;;;7.17;100.00;102271.41;5229354;28;20544;-72
2022/11/13 08:38:29;;;;;;;11.20;9.02;;;;;;;6.98;100.00;102259.25;5249417;22;20054;-75
2022/11/13 08:41:02;;;;;;;13.30;9.48;;;;;;;7.05;100.00;102258.03;5205937;28;20068;-75
2022/11/13 08:43:33;;;;;;;10.90;8.95;;;;;;;7.28;100.00;102261.31;5211091;28;20400;-76
2022/11/13 08:46:05;;;;;;;11.55;9.55;;;;;;;7.38;100.00;102257.31;5209416;28;20017;-73
2022/11/13 08:48:37;;;;;;;10.57;8.55;;;;;;;7.40;100.00;102258.13;5194822;28;20034;-73
2022/11/13 08:51:08;;;;;;;11.07;9.02;;;;;;;7.41;100.00;102257.19;5211281;28;20029;-73
2022/11/13 08:53:39;;;;;;;10.05;8.63;;;;;;;7.42;100.00;102258.88;5213006;28;20029;-73
2022/11/13 08:56:10;;;;;;;10.43;8.80;;;;;;;7.57;100.00;102252.88;5209408;28;20026;-73
2022/11/13 08:58:42;;;;;;;11.55;9.27;;;;;;;7.56;100.00;102260.81;5209847;28;20029;-73
2022/11/13 09:01:13;;;;;;;9.30;8.30;;;;;;;7.71;100.00;102254.81;5212337;28;20786;-73
2022/11/13 09:03:50;;;;;;;10.52;8.77;;;;;;;7.77;100.00;102249.31;5213025;28;20026;-73
2022/11/13 09:06:21;;;;;;;8.77;7.85;;;;;;;7.86;100.00;102262.81;5211777;28;20022;-73
2022/11/13 09:08:52;;;;;;;9.32;8.07;;;;;;;7.89;100.00;102252.22;5214256;28;20418;-73
2022/11/13 09:11:26;;;;;;;9.40;8.38;;;;;;;7.93;100.00;102251.97;5207082;28;20444;-73
2022/11/13 09:13:57;;;;;;;8.52;7.35;;;;;;;8.04;100.00;102241.84;5213975;28;20036;-73
2022/11/13 09:16:29;;;;;;;8.95;7.43;;;;;;;8.22;100.00;102240.03;5205605;28;20026;-73
2022/11/13 09:19:00;;;;;;;8.70;7.72;;;;;;;8.18;100.00;102241.13;5212352;28;20034;-73
2022/11/13 09:21:31;;;;;;;8.25;7.43;;;;;;;8.33;100.00;102238.59;5207036;28;20025;-73
2022/11/13 09:24:03;;;;;;;9.07;7.45;;;;;;;8.40;100.00;102237.38;5209997;28;20124;-73
2022/11/13 09:26:35;;;;;;;9.98;7.85;;;;;;;8.51;100.00;102235.88;5210622;28;20017;-73
2022/11/13 09:29:06;;;;;;;7.80;6.85;;;;;;;8.58;100.00;102235.56;5210969;28;20038;-74
2022/11/13 09:31:39;;;;;;;10.90;7.32;;;;;;;8.58;100.00;102232.97;5207438;28;20026;-74
2022/11/13 09:34:11;;;;;;;8.40;7.18;;;;;;;8.67;100.00;102235.06;5211720;28;20119;-74
2022/11/13 09:36:42;;;;;;;11.60;7.82;;;;;;;8.75;100.00;102238.09;5209571;28;20144;-74
2022/11/13 09:39:13;;;;;;;8.82;7.10;;;;;;;8.86;100.00;102238.34;5205289;28;20487;-74
2022/11/13 09:41:50;;;;;;;7.82;6.78;;;;;;;9.06;100.00;102231.19;5204224;28;20030;-74
2022/11/13 09:44:27;;;;;;;9.70;7.25;;;;;;;9.09;100.00;102234.47;5212857;28;20487;-74
2022/11/13 09:47:10;;;;;;;8.70;6.75;;;;;;;9.30;100.00;102231.56;5211111;28;20716;-74
2022/11/13 09:49:50;;;;;;;8.73;6.78;;;;;;;9.52;100.00;102234.63;5212037;28;20498;-74
2022/11/13 09:52:31;;;;;;;7.68;6.55;;;;;;;9.63;100.00;102236.63;5211846;28;20036;-74
2022/11/13 09:55:04;;;;;;;8.90;7.55;;;;;;;9.58;100.00;102230.78;5214508;28;20411;-74
2022/11/13 09:57:52;;;;;;;8.77;7.20;;;;;;;9.86;100.00;102235.25;5217241;28;20034;-74
2022/11/13 10:00:23;;;;;;;7.55;6.75;;;;;;;9.77;100.00;102231.38;5214990;28;20018;-75
2022/11/13 10:03:31;;;;;;;8.73;6.47;;;;;;;10.19;100.00;102224.50;5217562;28;20046;-74
2022/11/13 10:06:29;;;;;;;7.15;6.15;;;;;;;10.35;100.00;102230.53;5215338;28;20079;-74
2022/11/13 10:09:14;;;;;;;8.73;6.93;;;;;;;10.29;100.00;102227.44;5210986;28;20038;-74
2022/11/13 10:11:55;;;;;;;8.32;6.38;;;;;;;10.31;100.00;102228.22;5214061;28;20398;-74
2022/11/13 10:14:33;;;;;;;7.38;6.10;;;;;;;10.47;100.00;102227.16;5214959;28;20065;-74
2022/11/13 10:17:20;;;;;;;8.75;5.95;;;;;;;10.61;100.00;102222.84;5211471;28;20113;-74
2022/11/13 10:19:56;;;;;;;8.85;6.70;;;;;;;10.87;100.00;102229.03;5216589;28;20077;-74
2022/11/13 10:22:50;;;;;;;6.88;6.07;;;;;;;10.87;100.00;102223.78;5212063;28;20029;-74
2022/11/13 10:25:27;;;;;;;9.13;6.18;;;;;;;10.91;100.00;102218.28;5211173;28;20033;-74
2022/11/13 10:28:11;;;;;;;6.72;5.75;;;;;;;11.08;100.00;102216.34;5200009;28;20139;-74
2022/11/13 10:30:44;;;;;;;6.68;5.82;;;;;;;10.95;100.00;102213.66;5210040;28;20121;-75
2022/11/13 10:33:20;;;;;;;10.60;6.15;;;;;;;11.22;100.00;102205.78;5211701;28;20072;-74
2022/11/13 10:36:12;;;;;;;7.32;5.95;;;;;;;11.10;100.00;102202.19;5210302;28;20033;-74
2022/11/13 10:38:53;;;;;;;8.10;6.30;;;;;;;11.22;100.00;102200.53;5228386;28;20053;-74
2022/11/13 10:41:24;;;;;;;6.05;5.45;;;;;;;11.43;100.00;102204.34;5214889;28;20080;-75
2022/11/13 10:44:04;;;;;;;7.00;6.05;;;;;;;11.63;100.00;102197.78;5213481;28;20418;-74
2022/11/13 10:46:36;;;;;;;6.93;5.60;;;;;;;11.58;100.00;102191.13;5211299;28;20026;-74
2022/11/13 10:49:21;;;;;;;6.53;5.45;;;;;;;11.76;100.00;102182.03;5212939;28;20168;-75
2022/11/13 10:51:56;;;;;;;7.13;5.78;;;;;;;11.85;100.00;102176.16;5209555;28;20041;-74
2022/11/13 10:54:32;;;;;;;6.35;5.57;;;;;;;11.80;100.00;102167.72;5212278;28;20026;-74
2022/11/13 10:57:17;;;;;;;6.78;5.45;;;;;;;11.89;100.00;102163.66;5212885;28;20112;-74
2022/11/13 10:59:49;;;;;;;7.32;5.30;;;;;;;12.07;100.00;102169.44;5211424;28;20483;-74
2022/11/13 11:02:22;;;;;;;5.78;5.18;;;;;;;12.30;100.00;102157.28;5213271;28;20034;-74
2022/11/13 11:05:17;;;;;;;7.15;5.43;;;;;;;12.54;100.00;102159.94;5211275;28;20380;-74
2022/11/13 11:07:49;;;;;;;5.97;5.13;;;;;;;12.24;100.00;102149.88;5213569;28;20014;-75
2022/11/13 11:10:31;;;;;;;6.75;5.10;;;;;;;12.69;100.00;102153.59;5212032;28;20061;-74
2022/11/13 11:13:11;;;;;;;7.17;5.43;;;;;;;12.87;100.00;102156.66;5214116;28;20491;-74
2022/11/13 11:16:00;;;;;;;7.53;5.45;;;;;;;12.75;100.00;102155.75;5214286;28;20038;-74
2022/11/13 11:18:37;;;;;;;5.88;4.45;;;;;;;12.79;100.00;102141.44;5211829;28;20053;-74
2022/11/13 11:21:14;;;;;;;6.03;5.20;;;;;;;13.01;100.00;102153.00;5214757;28;20064;-74
2022/11/13 11:24:04;;;;;;;5.57;4.05;;;;;;;13.23;100.00;102157.53;5229100;28;20088;-74
2022/11/13 11:26:44;;;;;;;6.22;4.78;;;;;;;13.09;100.00;102153.28;5213932;28;20068;-74
2022/11/13 11:29:37;;;;;;;6.55;4.90;;;;;;;13.41;100.00;102150.91;5204525;28;20517;-75
2022/11/13 11:32:13;;;;;;;7.18;4.75;;;;;;;13.42;100.00;102143.84;5204330;28;20379;-74
2022/11/13 11:35:09;;;;;;;5.15;4.65;;;;;;;13.72;100.00;102133.59;5212292;28;20471;-74
2022/11/13 11:38:02;;;;;;;6.40;5.00;;;;;;;13.90;100.00;102131.28;5211782;28;20037;-74
2022/11/13 11:40:44;;;;;;;5.30;4.80;;;;;;;13.83;100.00;102128.31;5213935;28;20401;-74
2022/11/13 11:43:22;;;;;;;5.63;5.05;;;;;;;13.83;100.00;102119.59;5199985;28;20044;-74
2022/11/13 11:45:53;;;;;;;6.82;5.55;;;;;;;13.74;100.00;102122.91;5198782;28;20124;-74
2022/11/13 11:48:29;;;;;;;7.05;5.18;;;;;;;13.81;100.00;102110.94;5208092;28;20042;-74
2022/11/13 11:51:25;;;;;;;6.88;5.30;;;;;;;14.10;100.00;102101.59;5207536;28;20034;-74
2022/11/13 11:54:12;;;;;;;7.57;5.32;;;;;;;14.16;100.00;102094.97;5210241;28;20029;-74